createdAt,value
2022-09-10T00:02:10.438Z,22.25
2022-09-10T00:04:39.484Z,16.65
2022-09-10T00:07:09.415Z,17.27
2022-09-10T00:09:39.313Z,16.00
2022-09-10T00:12:09.179Z,14.90
2022-09-10T00:14:45.459Z,15.32
2022-09-10T00:17:15.141Z,16.20
2022-09-10T00:19:44.196Z,19.02
2022-09-10T00:22:13.882Z,18.50
2022-09-10T00:24:42.880Z,25.65
2022-09-10T00:27:12.027Z,24.77
2022-09-10T00:29:41.080Z,21.23
2022-09-10T00:32:12.513Z,18.33
2022-09-10T00:34:41.677Z,19.05
2022-09-10T00:37:10.936Z,23.98
2022-09-10T00:39:45.162Z,24.67
2022-09-10T00:42:14.358Z,19.92
2022-09-10T00:45:08.446Z,23.88
2022-09-10T00:47:49.460Z,17.08
2022-09-10T00:50:25.381Z,17.40
2022-09-10T00:52:57.705Z,21.45
2022-09-10T00:55:32.283Z,19.17
2022-09-10T00:58:03.468Z,16.80
2022-09-10T01:00:32.973Z,20.42
2022-09-10T01:03:05.736Z,16.90
2022-09-10T01:08:24.509Z,17.52
2022-09-10T01:11:08.633Z,19.42
2022-09-10T01:13:54.758Z,17.65
2022-09-10T01:16:34.375Z,25.80
2022-09-10T01:19:24.059Z,22.88
2022-09-10T01:22:02.949Z,21.10
2022-09-10T01:24:52.590Z,18.80
2022-09-10T01:27:46.716Z,19.48
2022-09-10T01:30:20.221Z,17.35
2022-09-10T01:33:06.133Z,25.83
2022-09-10T01:35:44.865Z,22.25
2022-09-10T01:38:19.246Z,17.65
2022-09-10T01:40:55.188Z,21.75
2022-09-10T01:43:29.064Z,19.52
2022-09-10T01:46:14.343Z,23.08
2022-09-10T01:49:10.646Z,22.13
2022-09-10T01:51:54.772Z,19.13
2022-09-10T01:54:40.933Z,25.13
2022-09-10T01:57:20.695Z,18.48
2022-09-10T01:59:59.559Z,20.95
2022-09-10T02:02:39.393Z,16.98
2022-09-10T02:05:11.375Z,19.42
2022-09-10T02:07:41.516Z,15.82
2022-09-10T02:12:47.455Z,19.20
2022-09-10T02:15:42.316Z,17.73
2022-09-10T02:18:27.361Z,23.75
2022-09-10T02:20:58.451Z,21.80
2022-09-10T02:23:38.899Z,17.92
2022-09-10T02:26:08.581Z,20.73
2022-09-10T02:28:38.399Z,20.77
2022-09-10T02:31:10.194Z,19.17
2022-09-10T02:36:08.612Z,15.57
2022-09-10T02:38:43.046Z,13.63
2022-09-10T02:41:13.654Z,17.42
2022-09-10T02:43:44.823Z,18.42
2022-09-10T02:46:15.982Z,19.35
2022-09-10T02:48:45.090Z,20.73
2022-09-10T02:51:14.369Z,16.08
2022-09-10T02:53:43.886Z,19.13
2022-09-10T02:56:15.373Z,19.83
2022-09-10T02:58:45.211Z,21.38
2022-09-10T03:01:24.095Z,18.92
2022-09-10T03:04:02.178Z,17.48
2022-09-10T03:06:32.702Z,19.10
2022-09-10T03:09:01.722Z,23.40
2022-09-10T03:11:31.662Z,18.75
2022-09-10T03:14:01.334Z,19.65
2022-09-10T03:16:35.395Z,31.23
2022-09-10T03:19:05.957Z,31.25
2022-09-10T03:21:35.490Z,30.92
2022-09-10T03:24:12.010Z,23.92
2022-09-10T03:26:48.521Z,18.67
2022-09-10T03:29:18.964Z,17.38
2022-09-10T03:31:51.134Z,18.17
2022-09-10T03:34:22.260Z,17.92
2022-09-10T03:36:51.539Z,20.40
2022-09-10T03:39:21.716Z,23.90
2022-09-10T03:41:55.940Z,17.30
2022-09-10T03:44:24.999Z,19.10
2022-09-10T03:46:56.175Z,21.63
2022-09-10T03:49:25.405Z,22.33
2022-09-10T03:51:55.496Z,26.95
2022-09-10T03:54:31.271Z,23.77
2022-09-10T03:57:02.899Z,22.08
2022-09-10T03:59:39.216Z,20.17
2022-09-10T04:02:10.882Z,21.27
2022-09-10T04:04:40.356Z,21.67
2022-09-10T04:07:11.921Z,26.27
2022-09-10T04:09:41.351Z,22.17
2022-09-10T04:12:10.618Z,25.45
2022-09-10T04:14:46.353Z,18.58
2022-09-10T04:17:19.412Z,21.50
2022-09-10T04:19:53.643Z,21.25
2022-09-10T04:22:28.958Z,21.85
2022-09-10T04:24:59.816Z,22.73
2022-09-10T04:27:30.521Z,18.00
2022-09-10T04:29:59.893Z,21.63
2022-09-10T04:32:31.086Z,19.52
2022-09-10T04:35:02.241Z,19.73
2022-09-10T04:37:33.775Z,15.95
2022-09-10T04:40:03.775Z,19.80
2022-09-10T04:42:37.263Z,16.48
2022-09-10T04:45:08.472Z,17.05
2022-09-10T04:47:46.298Z,15.52
2022-09-10T04:50:16.230Z,16.70
2022-09-10T04:53:06.079Z,17.50
2022-09-10T04:55:35.572Z,14.68
2022-09-10T04:58:05.579Z,14.35
2022-09-10T05:00:40.132Z,15.65
2022-09-10T05:03:12.783Z,15.30
2022-09-10T05:05:45.726Z,16.40
2022-09-10T05:08:15.057Z,17.80
2022-09-10T05:10:50.628Z,12.60
2022-09-10T05:13:20.091Z,17.92
2022-09-10T05:15:49.217Z,15.48
2022-09-10T05:18:20.485Z,14.20
2022-09-10T05:20:50.093Z,14.48
2022-09-10T05:23:19.750Z,12.98
2022-09-10T05:28:30.654Z,12.82
2022-09-10T05:31:05.386Z,15.98
2022-09-10T05:33:40.273Z,13.65
2022-09-10T05:36:11.737Z,13.48
2022-09-10T05:38:42.894Z,11.52
2022-09-10T05:41:13.163Z,17.02
2022-09-10T05:43:46.914Z,13.15
2022-09-10T05:46:16.735Z,13.80
2022-09-10T05:48:53.759Z,13.73
2022-09-10T05:51:32.533Z,13.73
2022-09-10T05:54:05.452Z,16.60
2022-09-10T05:56:35.797Z,12.40
2022-09-10T05:59:10.229Z,14.35
2022-09-10T06:01:42.420Z,18.50
2022-09-10T06:04:15.158Z,18.50
2022-09-10T06:06:49.989Z,16.67
2022-09-10T06:09:24.534Z,11.95
2022-09-10T06:12:01.367Z,14.75
2022-09-10T06:14:32.051Z,12.30
2022-09-10T06:17:06.439Z,11.98
2022-09-10T06:19:37.695Z,9.77
2022-09-10T06:22:13.222Z,10.27
2022-09-10T06:24:53.353Z,10.50
2022-09-10T06:27:29.962Z,8.05
2022-09-10T06:29:59.800Z,10.73
2022-09-10T06:32:28.901Z,10.85
2022-09-10T06:35:00.441Z,7.53
2022-09-10T06:37:34.706Z,10.45
2022-09-10T06:40:08.622Z,9.95
2022-09-10T06:42:38.540Z,7.88
2022-09-10T06:45:27.917Z,4.60
2022-09-10T06:48:48.950Z,5.88
2022-09-10T06:51:15.590Z,5.97
2022-09-10T06:53:45.963Z,5.72
2022-09-10T06:56:17.703Z,5.05
2022-09-10T06:58:47.741Z,4.07
2022-09-10T07:01:19.210Z,8.77
2022-09-10T07:04:00.278Z,7.22
2022-09-10T07:06:34.776Z,4.93
2022-09-10T07:09:21.423Z,5.82
2022-09-10T07:12:01.567Z,3.72
2022-09-10T07:14:34.529Z,3.78
2022-09-10T07:17:07.182Z,5.30
2022-09-10T07:19:38.423Z,4.82
2022-09-10T07:22:16.785Z,5.18
2022-09-10T07:24:47.187Z,3.25
2022-09-10T07:27:55.739Z,2.90
2022-09-10T07:30:26.013Z,4.25
2022-09-10T07:33:02.026Z,9.05
2022-09-10T07:35:33.241Z,9.77
2022-09-10T07:38:05.342Z,5.50
2022-09-10T07:40:37.594Z,7.15
2022-09-10T07:43:08.633Z,7.53
2022-09-10T07:45:39.517Z,3.58
2022-09-10T07:48:15.804Z,4.05
2022-09-10T07:50:45.037Z,4.07
2022-09-10T07:53:20.487Z,7.95
2022-09-10T07:55:59.445Z,4.40
2022-09-10T07:58:31.398Z,5.35
2022-09-10T08:01:01.914Z,3.22
2022-09-10T08:03:32.172Z,6.07
2022-09-10T08:06:03.282Z,5.03
2022-09-10T08:08:41.374Z,5.95
2022-09-10T08:11:17.081Z,3.22
2022-09-10T08:13:50.838Z,5.72
2022-09-10T08:16:29.623Z,3.40
2022-09-10T08:19:05.886Z,4.25
2022-09-10T08:21:36.790Z,2.57
2022-09-10T08:24:09.628Z,11.90
2022-09-10T08:26:40.626Z,8.55
2022-09-10T08:29:10.176Z,3.78
2022-09-10T08:31:39.220Z,4.70
2022-09-10T08:34:15.581Z,6.05
2022-09-10T08:36:50.749Z,4.43
2022-09-10T08:39:21.964Z,3.45
2022-09-10T08:41:57.510Z,3.85
2022-09-10T08:44:42.686Z,5.80
2022-09-10T08:47:23.845Z,5.72
2022-09-10T08:50:00.113Z,4.30
2022-09-10T08:52:39.721Z,3.88
2022-09-10T08:55:33.910Z,4.47
2022-09-10T08:58:12.536Z,3.30
2022-09-10T09:00:46.278Z,3.97
2022-09-10T09:03:26.952Z,3.92
2022-09-10T09:06:00.079Z,3.78
2022-09-10T09:08:47.873Z,3.38
2022-09-10T09:11:37.750Z,6.88
2022-09-10T09:14:33.144Z,2.72
2022-09-10T09:17:20.311Z,7.55
2022-09-10T09:20:01.373Z,5.15
2022-09-10T09:22:41.694Z,3.97
2022-09-10T09:25:24.744Z,4.18
2022-09-10T09:27:58.019Z,8.05
2022-09-10T09:30:37.894Z,3.13
2022-09-10T09:33:16.339Z,7.95
2022-09-10T09:35:50.358Z,5.07
2022-09-10T09:38:25.558Z,7.75
2022-09-10T09:41:00.956Z,4.57
2022-09-10T09:43:46.738Z,7.22
2022-09-10T09:46:18.840Z,4.57
2022-09-10T09:49:00.129Z,5.53
2022-09-10T09:51:34.947Z,4.10
2022-09-10T09:54:46.478Z,4.90
2022-09-10T09:57:02.481Z,4.07
2022-09-10T09:59:40.179Z,3.60
2022-09-10T10:02:15.602Z,4.50
2022-09-10T10:04:57.257Z,5.07
2022-09-10T10:07:31.970Z,3.00
2022-09-10T10:10:02.804Z,7.20
2022-09-10T10:12:34.093Z,3.67
2022-09-10T10:15:05.493Z,5.60
2022-09-10T10:17:41.678Z,2.70
2022-09-10T10:20:17.864Z,5.38
2022-09-10T10:22:48.492Z,3.85
2022-09-10T10:25:42.129Z,7.07
2022-09-10T10:28:22.130Z,3.92
2022-09-10T10:31:00.801Z,4.90
2022-09-10T10:33:35.063Z,4.93
2022-09-10T10:36:14.189Z,6.50
2022-09-10T10:38:47.514Z,7.65
2022-09-10T10:41:58.198Z,3.17
2022-09-10T10:44:52.803Z,4.22
2022-09-10T10:47:46.420Z,11.57
2022-09-10T10:50:27.890Z,3.65
2022-09-10T10:53:26.449Z,4.45
2022-09-10T10:56:02.718Z,6.43
2022-09-10T10:59:00.722Z,4.63
2022-09-10T11:01:33.598Z,5.55
2022-09-10T11:04:29.022Z,3.30
2022-09-10T11:07:06.814Z,3.53
2022-09-10T11:09:52.597Z,5.00
2022-09-10T11:12:29.530Z,3.42
2022-09-10T11:15:04.010Z,3.97
2022-09-10T11:17:38.948Z,5.68
2022-09-10T11:23:17.919Z,11.77
2022-09-10T11:25:56.016Z,4.45
2022-09-10T11:28:30.714Z,3.35
2022-09-10T11:31:09.449Z,6.75
2022-09-10T11:33:47.120Z,4.70
2022-09-10T11:36:26.892Z,3.30
2022-09-10T11:39:06.738Z,4.57
2022-09-10T11:41:41.744Z,5.15
2022-09-10T11:44:24.442Z,5.95
2022-09-10T11:47:02.945Z,2.92
2022-09-10T11:49:48.087Z,5.05
2022-09-10T11:52:22.575Z,8.57
2022-09-10T11:54:52.170Z,5.85
2022-09-10T11:57:34.493Z,7.63
2022-09-10T12:00:23.503Z,7.70
2022-09-10T12:03:32.400Z,5.07
2022-09-10T12:06:08.386Z,9.30
2022-09-10T12:08:59.500Z,3.65
2022-09-10T12:11:39.077Z,5.67
2022-09-10T12:14:10.413Z,4.85
2022-09-10T12:16:49.762Z,3.20
2022-09-10T12:19:29.814Z,5.78
2022-09-10T12:22:03.700Z,5.00
2022-09-10T12:24:37.054Z,4.45
2022-09-10T12:27:09.699Z,6.25
2022-09-10T12:29:40.515Z,4.15
2022-09-10T12:32:31.912Z,4.10
2022-09-10T12:35:48.674Z,7.05
2022-09-10T12:38:49.800Z,3.92
2022-09-10T12:41:53.701Z,5.57
2022-09-10T12:44:47.012Z,5.32
2022-09-10T12:47:54.850Z,5.63
2022-09-10T12:57:19.941Z,5.93
2022-09-10T13:00:13.801Z,4.55
2022-09-10T13:02:51.235Z,5.82
2022-09-10T13:05:26.397Z,5.88
2022-09-10T13:10:39.709Z,6.93
2022-09-10T13:13:33.162Z,7.78
2022-09-10T13:16:03.922Z,5.88
2022-09-10T13:18:40.518Z,9.20
2022-09-10T13:21:42.039Z,5.68
2022-09-10T13:24:54.408Z,9.48
2022-09-10T13:27:36.223Z,6.18
2022-09-10T13:30:18.529Z,4.75
2022-09-10T13:32:54.220Z,8.13
2022-09-10T13:35:51.562Z,7.22
2022-09-10T13:38:51.941Z,6.32
2022-09-10T13:41:45.737Z,6.97
2022-09-10T13:44:30.546Z,5.97
2022-09-10T13:47:14.991Z,6.72
2022-09-10T13:49:54.056Z,8.55
2022-09-10T13:52:28.843Z,8.30
2022-09-10T13:55:01.171Z,9.93
2022-09-10T13:57:36.114Z,9.32
2022-09-10T14:00:10.149Z,7.63
2022-09-10T14:05:41.087Z,8.75
2022-09-10T14:08:21.684Z,16.70
2022-09-10T14:10:55.630Z,9.00
2022-09-10T14:13:34.551Z,7.50
2022-09-10T14:16:08.890Z,13.98
2022-09-10T14:18:50.512Z,11.68
2022-09-10T14:21:26.549Z,9.63
2022-09-10T14:23:56.919Z,9.65
2022-09-10T14:26:27.511Z,10.15
2022-09-10T14:29:00.610Z,10.05
2022-09-10T14:31:42.981Z,7.68
2022-09-10T14:34:32.334Z,8.55
2022-09-10T14:37:02.808Z,8.38
2022-09-10T14:39:32.149Z,6.60
2022-09-10T14:42:13.503Z,7.32
2022-09-10T14:44:47.799Z,7.70
2022-09-10T14:47:29.438Z,10.75
2022-09-10T14:50:34.150Z,6.88
2022-09-10T14:53:03.327Z,8.43
2022-09-10T14:55:34.418Z,10.45
2022-09-10T15:00:38.604Z,8.70
2022-09-10T15:03:07.703Z,9.57
2022-09-10T15:05:38.914Z,11.05
2022-09-10T15:08:08.117Z,12.48
2022-09-10T15:10:37.241Z,14.57
2022-09-10T15:13:12.262Z,14.10
2022-09-10T15:15:41.460Z,12.68
2022-09-10T15:18:14.056Z,18.15
2022-09-10T15:20:45.197Z,11.75
2022-09-10T15:23:14.689Z,13.25
2022-09-10T15:28:31.609Z,12.98
2022-09-10T15:31:01.009Z,14.85
2022-09-10T15:33:30.258Z,11.40
2022-09-10T15:36:01.515Z,12.70
2022-09-10T15:38:31.009Z,12.85
2022-09-10T15:41:14.927Z,14.15
2022-09-10T15:43:45.551Z,20.33
2022-09-10T15:46:16.405Z,17.45
2022-09-10T15:48:47.027Z,12.57
2022-09-10T15:51:21.007Z,9.57
2022-09-10T15:53:51.821Z,16.08
2022-09-10T15:56:23.769Z,13.98
2022-09-10T15:58:54.662Z,22.17
2022-09-10T16:01:25.313Z,14.40
2022-09-10T16:03:57.506Z,18.42
2022-09-10T16:06:30.535Z,19.80
2022-09-10T16:09:02.681Z,23.27
2022-09-10T16:11:33.182Z,18.42
2022-09-10T16:14:04.874Z,23.45
2022-09-10T16:19:04.329Z,24.58
2022-09-10T16:21:43.841Z,31.60
2022-09-10T16:24:14.779Z,23.60
2022-09-10T16:26:47.407Z,21.40
2022-09-10T16:29:19.062Z,22.05
2022-09-10T16:34:24.816Z,26.30
2022-09-10T16:36:56.277Z,21.90
2022-09-10T16:39:25.420Z,20.23
2022-09-10T16:41:55.602Z,14.55
2022-09-10T16:44:24.697Z,18.80
2022-09-10T16:46:53.785Z,23.95
2022-09-10T16:49:23.130Z,18.38
2022-09-10T16:52:04.905Z,25.63
2022-09-10T16:54:34.178Z,27.70
2022-09-10T16:57:03.281Z,22.67
2022-09-10T16:59:32.792Z,28.85
2022-09-10T17:02:02.017Z,28.67
2022-09-10T17:04:38.240Z,15.77
2022-09-10T17:07:10.181Z,16.73
2022-09-10T17:09:39.662Z,16.02
2022-09-10T17:12:10.178Z,14.02
2022-09-10T17:14:40.369Z,15.73
2022-09-10T17:17:10.863Z,12.45
2022-09-10T17:19:41.528Z,14.73
2022-09-10T17:22:13.253Z,16.63
2022-09-10T17:24:42.592Z,21.60
2022-09-10T17:27:11.817Z,25.08
2022-09-10T17:29:47.716Z,24.23
2022-09-10T17:32:21.749Z,18.30
2022-09-10T17:34:56.159Z,21.58
2022-09-10T17:37:27.662Z,18.05
2022-09-10T17:40:02.007Z,17.80
2022-09-10T17:42:33.196Z,19.92
2022-09-10T17:45:09.804Z,23.05
2022-09-10T17:47:39.205Z,17.25
2022-09-10T17:50:10.817Z,19.40
2022-09-10T17:52:45.386Z,25.13
2022-09-10T17:55:15.433Z,20.83
2022-09-10T17:57:44.657Z,19.83
2022-09-10T18:00:15.281Z,17.02
2022-09-10T18:02:45.054Z,17.65
2022-09-10T18:05:14.772Z,17.45
2022-09-10T18:07:52.320Z,17.35
2022-09-10T18:10:27.118Z,15.13
2022-09-10T18:13:01.693Z,20.98
2022-09-10T18:15:33.164Z,16.58
2022-09-10T18:18:02.635Z,16.30
2022-09-10T18:20:32.609Z,18.88
2022-09-10T18:23:09.135Z,14.80
2022-09-10T18:25:38.522Z,19.80
2022-09-10T18:28:07.694Z,15.40
2022-09-10T18:30:37.755Z,17.85
2022-09-10T18:33:07.791Z,19.98
2022-09-10T18:35:38.115Z,17.05
2022-09-10T18:38:09.816Z,18.52
2022-09-10T18:40:42.189Z,17.35
2022-09-10T18:43:13.262Z,17.17
2022-09-10T18:45:42.432Z,14.57
2022-09-10T18:48:11.623Z,21.05
2022-09-10T18:50:40.996Z,14.85
2022-09-10T18:53:17.967Z,15.15
2022-09-10T18:55:47.797Z,16.20
2022-09-10T18:58:18.768Z,28.95
2022-09-10T19:00:49.022Z,31.15
2022-09-10T19:03:18.653Z,27.95
2022-09-10T19:05:47.811Z,34.22
2022-09-10T19:08:21.316Z,33.33
2022-09-10T19:10:54.503Z,26.52
2022-09-10T19:13:24.865Z,31.30
2022-09-10T19:15:56.892Z,26.55
2022-09-10T19:18:28.194Z,30.33
2022-09-10T19:21:02.933Z,28.88
2022-09-10T19:23:36.247Z,27.02
2022-09-10T19:26:09.757Z,28.40
2022-09-10T19:28:40.235Z,27.70
2022-09-10T19:31:11.142Z,28.17
2022-09-10T19:33:41.331Z,23.38
2022-09-10T19:36:12.594Z,28.45
2022-09-10T19:38:44.284Z,28.35
2022-09-10T19:41:20.228Z,28.98
2022-09-10T19:43:51.360Z,28.23
2022-09-10T19:46:27.863Z,27.42
2022-09-10T19:48:59.239Z,26.38
2022-09-10T19:51:36.145Z,24.70
2022-09-10T19:54:08.516Z,20.85
2022-09-10T19:56:41.997Z,25.58
2022-09-10T19:59:11.511Z,28.70
2022-09-10T20:01:43.346Z,32.00
2022-09-10T20:04:13.674Z,34.03
2022-09-10T20:06:45.526Z,26.48
2022-09-10T20:09:16.773Z,29.73
2022-09-10T20:11:51.077Z,35.42
2022-09-10T20:14:20.563Z,28.38
2022-09-10T20:16:49.760Z,27.33
2022-09-10T20:19:21.558Z,29.10
2022-09-10T20:21:51.325Z,25.77
2022-09-10T20:24:28.422Z,28.65
2022-09-10T20:26:57.857Z,24.23
2022-09-10T20:29:28.368Z,22.27
2022-09-10T20:31:57.477Z,24.40
2022-09-10T20:34:27.248Z,25.70
2022-09-10T20:36:56.294Z,24.67
2022-09-10T20:39:27.780Z,27.27
2022-09-10T20:41:58.088Z,23.83
2022-09-10T20:44:33.811Z,20.63
2022-09-10T20:47:03.164Z,25.23
2022-09-10T20:49:32.321Z,21.45
2022-09-10T20:52:01.527Z,25.23
2022-09-10T20:54:32.511Z,19.52
2022-09-10T20:57:08.316Z,19.70
2022-09-10T20:59:37.365Z,19.80
2022-09-10T21:02:08.006Z,22.02
2022-09-10T21:04:48.336Z,18.52
2022-09-10T21:07:17.565Z,16.05
2022-09-10T21:09:48.994Z,22.00
2022-09-10T21:12:18.263Z,20.40
2022-09-10T21:14:47.347Z,15.77
2022-09-10T21:17:16.885Z,22.48
2022-09-10T21:19:46.932Z,19.95
2022-09-10T21:22:21.747Z,20.33
2022-09-10T21:24:57.948Z,16.73
2022-09-10T21:30:03.543Z,24.77
2022-09-10T21:32:34.242Z,18.35
2022-09-10T21:35:03.259Z,20.42
2022-09-10T21:37:32.396Z,23.25
2022-09-10T21:40:04.514Z,16.25
2022-09-10T21:42:33.767Z,21.63
2022-09-10T21:45:03.056Z,25.08
2022-09-10T21:47:33.541Z,23.50
2022-09-10T21:50:08.515Z,20.63
2022-09-10T21:52:37.657Z,18.38
2022-09-10T21:55:09.390Z,26.15
2022-09-10T21:57:38.982Z,20.25
2022-09-10T22:00:14.287Z,21.75
2022-09-10T22:02:43.970Z,21.92
2022-09-10T22:05:18.211Z,18.88
2022-09-10T22:07:47.862Z,22.13
2022-09-10T22:10:19.807Z,23.75
2022-09-10T22:12:49.036Z,20.95
2022-09-10T22:15:18.281Z,24.33
2022-09-10T22:17:53.744Z,21.73
2022-09-10T22:20:22.919Z,28.00
2022-09-10T22:22:51.931Z,19.23
2022-09-10T22:25:23.053Z,19.05
2022-09-10T22:27:52.198Z,20.65
2022-09-10T22:30:21.860Z,19.55
2022-09-10T22:32:58.460Z,21.15
2022-09-10T22:35:27.930Z,17.67
2022-09-10T22:37:57.845Z,18.05
2022-09-10T22:40:29.590Z,17.95
2022-09-10T22:42:58.726Z,18.55
2022-09-10T22:45:27.850Z,17.08
2022-09-10T22:47:56.963Z,21.38
2022-09-10T22:50:26.541Z,20.25
2022-09-10T22:52:56.899Z,19.15
2022-09-10T22:55:26.095Z,21.90
2022-09-10T22:57:57.134Z,21.00
2022-09-10T23:00:26.408Z,21.13
2022-09-10T23:02:56.060Z,22.80
2022-09-10T23:05:25.172Z,20.42
2022-09-10T23:07:54.281Z,20.58
2022-09-10T23:10:23.719Z,23.13
2022-09-10T23:12:52.855Z,21.33
2022-09-10T23:15:24.249Z,22.55
2022-09-10T23:17:55.675Z,24.05
2022-09-10T23:20:26.112Z,21.60
2022-09-10T23:22:55.262Z,28.50
2022-09-10T23:25:29.337Z,28.80
2022-09-10T23:28:07.173Z,23.48
2022-09-10T23:30:38.481Z,25.95
2022-09-10T23:33:13.246Z,23.80
2022-09-10T23:35:47.461Z,29.67
2022-09-10T23:38:22.123Z,29.88
2022-09-10T23:43:26.658Z,26.50
2022-09-10T23:45:57.810Z,28.63
2022-09-10T23:48:27.852Z,27.13
2022-09-10T23:50:57.306Z,28.45
2022-09-10T23:53:29.081Z,29.67
2022-09-10T23:58:27.989Z,27.08
